• Join FlightAware (Why Join?)
  • Login
  • US Flag 
09:38AM EDT


 

Airport Tracker/Info


-or-


 

Live Flight TrackerFlight Track Log ✈ N7985N ✈ 27-Sep-2013 ✈ KPHF - KMQI

Flight Track Log - Related Links

Times and Time Zones

All times are in EDT time to prevent confusion due to time zone crossing. See the N7985N flight status page for this flight to view local times or setup timezone preferences in your user account.

Time Position Orientation Groundspeed Altitude Reporting Facility
EDT Latitude Longitude Course Direction KTS MPH feet Rate Location/Type
06:35PM 37.1311 -76.4933 69° East 62 71 600  Level Washington Center
06:35PM 37.1375 -76.4725 69° East 64 74 1,500 840 Climbing Washington Center
06:36PM 37.1522 -76.4675 15° North 99 114 2,300 780 Climbing Washington Center
06:37PM 37.1478 -76.4986 260° West 114 131 3,000 720 Climbing Washington Center
06:39PM 37.1392 -76.5403 255° West 116 133 3,800 600 Climbing Washington Center
06:39PM 37.1161 -76.5556 208° Southwest 122 140 4,300 540 Climbing Washington Center
06:40PM 37.0869 -76.5475 168° South 115 132 4,900 360 Climbing Washington Center
06:41PM 37.0578 -76.5314 156° South 121 139 5,100 60 Climbing Washington Center
06:42PM 37.0244 -76.5181 162° South 137 158 5,100  Level Washington Center
06:43PM 36.9892 -76.5019 160° South 129 148 5,100  Level Washington Center
06:44PM 36.9558 -76.4833 156° South 131 151 5,100  Level Washington Center
06:45PM 36.9164 -76.4700 165° South 129 148 5,100  Level Washington Center
06:46PM 36.8811 -76.4567 163° South 132 152 5,100  Level Washington Center
06:47PM 36.8497 -76.4433 161° South 133 153 5,100  Level Washington Center
06:48PM 36.8167 -76.4272 159° South 133 153 5,100  Level Washington Center
06:49PM 36.7792 -76.4139 164° South 133 153 5,100  Level Washington Center
06:50PM 36.7458 -76.3981 159° South 134 154 5,100  Level Washington Center
06:51PM 36.7083 -76.3822 161° South 132 152 5,100  Level Washington Center
06:52PM 36.6750 -76.3689 162° South 135 155 5,100  Level Washington Center
06:53PM 36.6397 -76.3531 160° South 133 153 5,100  Level Washington Center
06:54PM 36.6064 -76.3397 162° South 133 153 5,100  Level Washington Center
06:54PM 36.6064 -76.3397 162° South 132 152 5,100  Level Washington Center
06:55PM 36.5711 -76.3264 163° South 132 152 5,100  Level Washington Center
06:56PM 36.5356 -76.3158 167° South 131 151 5,100  Level Washington Center
06:56PM 36.5356 -76.3131 90° East 132 152 5,100  Level Washington Center
06:57PM 36.4981 -76.3050 170° South 132 152 5,100  Level Washington Center
06:57PM 36.5003 -76.3025 42° Northeast 132 152 5,100  Level Washington Center
06:58PM 36.4647 -76.2919 167° South 131 151 5,100  Level Washington Center
06:58PM 36.4669 -76.2894 42° Northeast 132 152 5,100  Level Washington Center
06:59PM 36.4294 -76.2736 161° South 129 148 5,100  Level Washington Center
07:00PM 36.4003 -76.2578 156° South 136 157 5,100  Level Washington Center
07:01PM 36.3669 -76.2419 159° South 136 157 5,100  Level Washington Center
07:02PM 36.3358 -76.2264 158° South 126 145 5,100  Level Washington Center
07:03PM 36.3025 -76.2081 156° South 126 145 5,100  Level Washington Center
07:04PM 36.2714 -76.1922 158° South 131 151 5,100  Level Washington Center
07:05PM 36.2464 -76.1689 143° Southeast 126 145 5,100  Level Washington Center
07:06PM 36.2236 -76.1378 132° Southeast 121 139 5,100  Level Washington Center
07:07PM 36.2028 -76.1094 132° Southeast 116 133 5,100  Level Washington Center
07:08PM 36.1822 -76.0783 129° Southeast 116 133 5,100 -120 Level Washington Center
07:09PM 36.1614 -76.0475 130° Southeast 116 133 4,900 -120 Descending Washington Center
07:10PM 36.1364 -76.0189 137° Southeast 116 133 4,900 -120 Level Washington Center
07:11PM 36.1158 -75.9881 130° Southeast 116 133 4,700 -480 Descending Washington Center
07:12PM 36.0950 -75.9594 132° Southeast 116 133 4,000 -720 Descending Washington Center
07:13PM 36.0761 -75.9286 127° Southeast 116 133 3,300 -720 Descending Washington Center
07:14PM 36.0556 -75.8978 130° Southeast 116 133 2,700 -600 Descending Washington Center
07:15PM 36.0347 -75.8719 135° Southeast 116 133 2,200 -420 Descending Washington Center
07:16PM 36.0158 -75.8411 127° Southeast 116 133 1,900 -180 Descending Washington Center
07:17PM 35.9889 -75.8103 137° Southeast 116 133 1,900  Level Washington Center